createdAt,value
2023-01-28T00:00:05.460Z,939.11
2023-01-28T00:05:03.321Z,939.07
2023-01-28T00:10:04.451Z,939.04
2023-01-28T00:15:03.334Z,939.11
2023-01-28T00:20:04.551Z,939.27
2023-01-28T00:25:03.269Z,939.39
2023-01-28T00:30:05.109Z,939.49
2023-01-28T00:35:03.310Z,939.47
2023-01-28T00:40:04.555Z,939.49
2023-01-28T00:45:03.613Z,939.53
2023-01-28T00:50:04.591Z,939.60
2023-01-28T00:55:03.311Z,939.62
2023-01-28T01:00:04.612Z,939.68
2023-01-28T01:05:03.398Z,939.74
2023-01-28T01:10:04.842Z,939.82
2023-01-28T01:15:03.267Z,939.84
2023-01-28T01:20:04.519Z,939.82
2023-01-28T01:25:03.287Z,939.86
2023-01-28T01:30:04.872Z,940.00
2023-01-28T01:35:03.397Z,939.98
2023-01-28T01:40:04.407Z,940.04
2023-01-28T01:45:03.471Z,940.09
2023-01-28T01:50:04.501Z,940.19
2023-01-28T01:55:03.747Z,940.15
2023-01-28T02:00:04.443Z,940.13
2023-01-28T02:05:03.383Z,940.13
2023-01-28T02:10:04.515Z,940.09
2023-01-28T02:15:03.440Z,940.11
2023-01-28T02:20:04.580Z,940.11
2023-01-28T02:25:03.255Z,940.11
2023-01-28T02:30:04.519Z,940.13
2023-01-28T02:35:03.357Z,940.08
2023-01-28T02:40:04.662Z,940.04
2023-01-28T02:45:03.467Z,940.00
2023-01-28T02:50:04.364Z,940.08
2023-01-28T02:55:03.558Z,940.06
2023-01-28T03:00:04.584Z,940.09
2023-01-28T03:05:03.434Z,940.08
2023-01-28T03:10:04.241Z,940.06
2023-01-28T03:15:03.394Z,940.06
2023-01-28T03:20:04.523Z,940.02
2023-01-28T03:25:03.292Z,940.04
2023-01-28T03:30:04.446Z,940.00
2023-01-28T03:35:03.316Z,940.00
2023-01-28T03:40:04.250Z,939.92
2023-01-28T03:45:03.203Z,939.96
2023-01-28T03:50:04.021Z,939.90
2023-01-28T03:55:03.334Z,939.82
2023-01-28T04:00:04.440Z,939.80
2023-01-28T04:05:03.364Z,939.70
2023-01-28T04:10:05.072Z,939.72
2023-01-28T04:15:03.446Z,939.68
2023-01-28T04:20:04.268Z,939.58
2023-01-28T04:25:03.251Z,939.49
2023-01-28T04:30:04.583Z,939.47
2023-01-28T04:35:03.387Z,939.35
2023-01-28T04:40:04.422Z,939.31
2023-01-28T04:45:03.424Z,939.33
2023-01-28T04:50:04.587Z,939.33
2023-01-28T04:55:03.306Z,939.41
2023-01-28T05:00:04.355Z,939.45
2023-01-28T05:05:03.324Z,939.49
2023-01-28T05:10:04.407Z,939.47
2023-01-28T05:15:03.441Z,939.33
2023-01-28T05:20:04.507Z,939.33
2023-01-28T05:25:03.350Z,939.31
2023-01-28T05:30:04.355Z,939.29
2023-01-28T05:35:03.450Z,939.39
2023-01-28T05:40:04.503Z,939.43
2023-01-28T05:45:03.332Z,939.37
2023-01-28T05:50:04.653Z,939.41
2023-01-28T05:55:03.424Z,939.41
2023-01-28T06:00:04.493Z,939.45
2023-01-28T06:05:03.539Z,939.45
2023-01-28T06:10:04.422Z,939.53
2023-01-28T06:15:03.394Z,939.54
2023-01-28T06:20:04.300Z,939.47
2023-01-28T06:25:03.201Z,939.47
2023-01-28T06:30:04.503Z,939.49
2023-01-28T06:35:03.471Z,939.49
2023-01-28T06:40:04.650Z,939.53
2023-01-28T06:45:03.346Z,939.47
2023-01-28T06:50:04.485Z,939.47
2023-01-28T06:55:03.231Z,939.47
2023-01-28T07:00:04.317Z,939.43
2023-01-28T07:05:03.343Z,939.51
2023-01-28T07:10:04.455Z,939.45
2023-01-28T07:15:03.435Z,939.49
2023-01-28T07:20:04.441Z,939.49
2023-01-28T07:25:03.313Z,939.56
2023-01-28T07:30:04.358Z,939.58
2023-01-28T07:35:03.277Z,939.60
2023-01-28T07:40:04.450Z,939.58
2023-01-28T07:45:03.419Z,939.66
2023-01-28T07:50:04.297Z,939.70
2023-01-28T07:55:03.236Z,939.76
2023-01-28T08:00:04.477Z,939.80
2023-01-28T08:05:03.482Z,939.84
2023-01-28T08:10:04.437Z,939.92
2023-01-28T08:15:03.188Z,939.90
2023-01-28T08:20:04.547Z,939.94
2023-01-28T08:25:03.215Z,939.98
2023-01-28T08:30:04.350Z,940.04
2023-01-28T08:35:03.294Z,940.06
2023-01-28T08:40:04.442Z,940.09
2023-01-28T08:45:03.427Z,940.13
2023-01-28T08:50:04.548Z,940.19
2023-01-28T08:55:03.275Z,940.23
2023-01-28T09:00:04.520Z,940.35
2023-01-28T09:05:03.327Z,940.43
2023-01-28T09:10:04.398Z,940.47
2023-01-28T09:15:03.404Z,940.55
2023-01-28T09:20:04.436Z,940.57
2023-01-28T09:25:03.341Z,940.70
2023-01-28T09:30:04.517Z,940.90
2023-01-28T09:35:03.284Z,941.02
2023-01-28T09:40:04.407Z,941.08
2023-01-28T09:45:03.205Z,941.11
2023-01-28T09:50:04.296Z,941.23
2023-01-28T09:55:03.286Z,941.25
2023-01-28T10:00:04.363Z,941.39
2023-01-28T10:05:03.327Z,941.39
2023-01-28T10:10:04.629Z,941.49
2023-01-28T10:15:03.411Z,941.51
2023-01-28T10:20:04.494Z,941.63
2023-01-28T10:25:03.529Z,941.72
2023-01-28T10:30:04.354Z,941.80
2023-01-28T10:35:03.296Z,941.82
2023-01-28T10:40:04.520Z,941.92
2023-01-28T10:45:03.404Z,941.94
2023-01-28T10:50:04.231Z,942.02
2023-01-28T10:55:03.239Z,942.04
2023-01-28T11:00:04.321Z,942.04
2023-01-28T11:05:03.430Z,942.11
2023-01-28T11:10:04.400Z,942.15
2023-01-28T11:15:03.376Z,942.19
2023-01-28T11:20:04.457Z,942.27
2023-01-28T11:25:03.238Z,942.27
2023-01-28T11:30:04.567Z,942.43
2023-01-28T11:35:03.285Z,942.51
2023-01-28T11:40:04.597Z,942.59
2023-01-28T11:45:03.410Z,942.65
2023-01-28T11:50:04.277Z,942.66
2023-01-28T11:55:03.325Z,942.68
2023-01-28T12:00:04.507Z,942.76
2023-01-28T12:05:03.444Z,942.80
2023-01-28T12:10:04.424Z,942.86
2023-01-28T12:15:03.428Z,942.80
2023-01-28T12:20:04.589Z,942.72
2023-01-28T12:25:03.245Z,942.65
2023-01-28T12:30:04.607Z,942.55
2023-01-28T12:35:03.363Z,942.57
2023-01-28T12:40:04.458Z,942.63
2023-01-28T12:45:03.378Z,942.65
2023-01-28T12:50:04.268Z,942.72
2023-01-28T12:55:03.252Z,942.72
2023-01-28T13:00:04.283Z,942.72
2023-01-28T13:05:03.330Z,942.74
2023-01-28T13:10:04.383Z,942.74
2023-01-28T13:15:03.417Z,942.82
2023-01-28T13:20:04.503Z,942.72
2023-01-28T13:25:03.304Z,942.74
2023-01-28T13:30:04.594Z,942.72
2023-01-28T13:35:03.441Z,942.66
2023-01-28T13:40:04.393Z,942.68
2023-01-28T13:45:03.431Z,942.65
2023-01-28T13:50:04.237Z,942.61
2023-01-28T13:55:03.489Z,942.59
2023-01-28T14:00:04.375Z,942.53
2023-01-28T14:05:03.633Z,942.55
2023-01-28T14:10:04.451Z,942.53
2023-01-28T14:15:03.385Z,942.51
2023-01-28T14:20:04.753Z,942.51
2023-01-28T14:25:03.435Z,942.51
2023-01-28T14:30:04.643Z,942.47
2023-01-28T14:35:03.304Z,942.43
2023-01-28T14:40:04.526Z,942.39
2023-01-28T14:45:03.192Z,942.33
2023-01-28T14:50:06.222Z,942.37
2023-01-28T14:55:03.299Z,942.31
2023-01-28T15:00:04.349Z,942.25
2023-01-28T15:05:03.377Z,942.25
2023-01-28T15:10:04.544Z,942.21
2023-01-28T15:15:03.423Z,942.21
2023-01-28T15:20:04.621Z,942.19
2023-01-28T15:25:03.237Z,942.21
2023-01-28T15:30:04.334Z,942.17
2023-01-28T15:35:03.348Z,942.13
2023-01-28T15:40:04.513Z,942.17
2023-01-28T15:45:03.363Z,942.10
2023-01-28T15:50:06.480Z,942.04
2023-01-28T15:55:03.326Z,941.98
2023-01-28T16:00:04.531Z,941.90
2023-01-28T16:05:03.405Z,941.88
2023-01-28T16:10:04.405Z,941.86
2023-01-28T16:15:03.389Z,941.82
2023-01-28T16:20:04.446Z,941.78
2023-01-28T16:25:03.402Z,941.76
2023-01-28T16:30:04.303Z,941.74
2023-01-28T16:35:03.291Z,941.66
2023-01-28T16:40:04.667Z,941.61
2023-01-28T16:45:03.414Z,941.61
2023-01-28T16:50:04.453Z,941.53
2023-01-28T16:55:03.236Z,941.51
2023-01-28T17:00:04.320Z,941.45
2023-01-28T17:05:03.337Z,941.35
2023-01-28T17:10:04.630Z,941.19
2023-01-28T17:15:03.421Z,941.09
2023-01-28T17:20:04.430Z,941.06
2023-01-28T17:25:03.199Z,941.02
2023-01-28T17:30:04.345Z,940.86
2023-01-28T17:35:03.323Z,940.78
2023-01-28T17:40:09.504Z,940.84
2023-01-28T17:45:03.344Z,940.76
2023-01-28T17:50:04.660Z,940.66
2023-01-28T17:55:03.492Z,940.68
2023-01-28T18:00:04.361Z,940.64
2023-01-28T18:05:03.417Z,940.57
2023-01-28T18:10:04.419Z,940.49
2023-01-28T18:15:03.425Z,940.43
2023-01-28T18:20:04.660Z,940.35
2023-01-28T18:25:03.239Z,940.27
2023-01-28T18:30:04.358Z,940.21
2023-01-28T18:35:03.338Z,940.11
2023-01-28T18:40:04.352Z,940.02
2023-01-28T18:45:03.403Z,940.08
2023-01-28T18:50:04.635Z,940.04
2023-01-28T18:55:03.249Z,939.92
2023-01-28T19:00:09.425Z,939.84
2023-01-28T19:05:03.291Z,939.70
2023-01-28T19:10:04.409Z,939.72
2023-01-28T19:15:03.521Z,939.74
2023-01-28T19:20:04.533Z,939.76
2023-01-28T19:25:03.514Z,939.68
2023-01-28T19:30:04.352Z,939.68
2023-01-28T19:35:03.380Z,939.51
2023-01-28T19:40:04.398Z,939.45
2023-01-28T19:45:04.155Z,939.45
2023-01-28T19:50:04.458Z,939.25
2023-01-28T19:55:03.269Z,939.19
2023-01-28T20:00:04.553Z,939.25
2023-01-28T20:05:03.500Z,939.31
2023-01-28T20:10:04.420Z,939.39
2023-01-28T20:15:03.414Z,939.41
2023-01-28T20:20:04.453Z,939.31
2023-01-28T20:25:03.449Z,939.27
2023-01-28T20:30:04.824Z,939.13
2023-01-28T20:35:03.404Z,939.00
2023-01-28T20:40:04.463Z,938.92
2023-01-28T20:45:03.454Z,938.96
2023-01-28T20:50:04.790Z,938.94
2023-01-28T20:55:03.294Z,938.98
2023-01-28T21:00:04.355Z,939.07
2023-01-28T21:05:03.423Z,939.04
2023-01-28T21:10:04.439Z,939.07
2023-01-28T21:15:03.436Z,939.06
2023-01-28T21:20:04.507Z,939.17
2023-01-28T21:25:05.412Z,939.41
2023-01-28T21:30:06.890Z,939.49
2023-01-28T21:35:03.324Z,939.53
2023-01-28T21:40:04.585Z,939.58
2023-01-28T21:45:03.383Z,939.70
2023-01-28T21:50:04.531Z,939.84
2023-01-28T21:55:03.216Z,939.86
2023-01-28T22:00:04.596Z,939.78
2023-01-28T22:05:03.373Z,939.84
2023-01-28T22:10:04.684Z,939.90
2023-01-28T22:15:03.415Z,940.04
2023-01-28T22:20:04.501Z,940.08
2023-01-28T22:25:03.239Z,940.11
2023-01-28T22:30:04.306Z,940.19
2023-01-28T22:35:03.343Z,940.43
2023-01-28T22:40:04.427Z,940.61
2023-01-28T22:45:03.412Z,940.70
2023-01-28T22:50:04.528Z,940.78
2023-01-28T22:55:03.270Z,941.02
2023-01-28T23:00:04.530Z,941.17
2023-01-28T23:05:03.346Z,941.25
2023-01-28T23:10:04.420Z,941.35
2023-01-28T23:15:03.540Z,941.39
2023-01-28T23:20:04.521Z,941.35
2023-01-28T23:25:03.190Z,941.37
2023-01-28T23:30:04.627Z,941.35
2023-01-28T23:35:03.313Z,941.41
2023-01-28T23:40:04.420Z,941.51
2023-01-28T23:45:03.405Z,941.61
2023-01-28T23:50:04.423Z,941.70
2023-01-28T23:55:03.182Z,941.80
